Time;durP1;ratioP1;P1;durP2;ratioP2;P2;SDS_P1;SDS_P2;PMS_P1;PMS_P2;Temp;Humidity;BMP_temperature;BMP_pressure;BME280_temperature;BME280_humidity;BME280_pressure;Samples;Min_cycle;Max_cycle;Signal;HPM_P1;HPM_P2
2022/03/01 00:01:24;;;;;;;29.33;23.00;;;-0.60;88.50;;;;;;4978019;28;20204;-81
2022/03/01 00:03:51;;;;;;;30.02;21.55;;;-0.50;89.60;;;;;;4977610;28;20223;-81
2022/03/01 00:06:18;;;;;;;28.83;22.40;;;-0.50;89.30;;;;;;4978520;28;20207;-82
2022/03/01 00:08:45;;;;;;;29.20;21.15;;;-0.50;89.60;;;;;;4978239;28;20222;-81
2022/03/01 00:11:13;;;;;;;28.48;20.77;;;-0.50;90.00;;;;;;4978548;28;20570;-80
2022/03/01 00:13:40;;;;;;;39.03;29.73;;;-0.60;89.80;;;;;;4978507;28;20219;-81
2022/03/01 00:16:07;;;;;;;35.10;26.13;;;-0.60;91.50;;;;;;4977917;28;20207;-81
2022/03/01 00:18:34;;;;;;;31.40;27.00;;;-0.60;90.60;;;;;;4977094;28;20203;-81
2022/03/01 00:21:00;;;;;;;39.90;26.13;;;-0.80;91.40;;;;;;4978040;28;20199;-82
2022/03/01 00:23:27;;;;;;;33.88;30.38;;;-0.80;91.90;;;;;;4978169;28;20219;-81
2022/03/01 00:25:54;;;;;;;35.22;27.77;;;-0.80;92.30;;;;;;4978209;28;20200;-81
2022/03/01 00:28:22;;;;;;;37.70;33.97;;;-0.60;92.30;;;;;;4981937;28;20590;-82
2022/03/01 00:30:49;;;;;;;35.33;31.73;;;-0.90;93.40;;;;;;4982214;28;20215;-81
2022/03/01 00:33:15;;;;;;;41.22;37.40;;;-1.00;93.50;;;;;;4982026;28;20216;-81
2022/03/01 00:35:42;;;;;;;54.35;50.35;;;-0.90;94.10;;;;;;4982942;28;20202;-81
2022/03/01 00:38:09;;;;;;;53.03;49.15;;;-0.90;94.70;;;;;;4982280;28;20203;-81
2022/03/01 00:40:36;;;;;;;47.03;42.97;;;-0.90;94.30;;;;;;4981829;28;20203;-81
2022/03/01 00:43:03;;;;;;;37.50;34.15;;;-1.10;94.00;;;;;;4981339;28;20488;-81
2022/03/01 00:45:31;;;;;;;43.50;40.20;;;-1.10;94.60;;;;;;4981528;28;20231;-81
2022/03/01 00:47:58;;;;;;;39.97;36.28;;;-1.30;94.10;;;;;;4981648;28;20231;-81
2022/03/01 00:50:25;;;;;;;86.03;80.63;;;-1.30;94.60;;;;;;4981427;28;20195;-81
2022/03/01 00:52:51;;;;;;;117.22;110.40;;;-1.40;96.10;;;;;;4981475;28;20211;-81
2022/03/01 00:55:18;;;;;;;102.45;96.75;;;-1.40;97.10;;;;;;4981926;28;20188;-81
2022/03/01 00:57:45;;;;;;;97.75;92.30;;;-1.50;97.80;;;;;;4981407;28;20207;-81
2022/03/01 01:00:13;;;;;;;133.27;126.82;;;-1.50;98.40;;;;;;4981012;28;20199;-81
2022/03/01 01:02:41;;;;;;;160.95;153.50;;;-1.60;99.00;;;;;;4980457;28;20203;-81
2022/03/01 01:05:08;;;;;;;176.95;168.57;;;-1.70;99.30;;;;;;4980840;28;20203;-81
2022/03/01 01:07:35;;;;;;;187.88;179.35;;;-1.70;99.90;;;;;;4981682;28;20196;-81
2022/03/01 01:10:03;;;;;;;220.68;209.23;;;-1.70;99.90;;;;;;4981146;28;20475;-81
2022/03/01 01:12:29;;;;;;;245.77;234.65;;;-1.90;99.90;;;;;;4980505;28;20208;-81
2022/03/01 01:14:56;;;;;;;268.65;256.55;;;-1.80;99.90;;;;;;4980789;28;20215;-82
2022/03/01 01:17:23;;;;;;;363.30;346.55;;;-1.90;99.90;;;;;;4980752;28;20211;-80
2022/03/01 01:19:51;;;;;;;385.23;367.70;;;-1.60;99.90;;;;;;4980794;28;20546;-82
2022/03/01 01:25:02;;;;;;;346.25;329.77;;;-1.40;99.90;;;;;;4980712;28;20230;-81
2022/03/01 01:27:29;;;;;;;365.67;348.95;;;-1.50;99.90;;;;;;4980835;28;20207;-81
2022/03/01 01:29:56;;;;;;;360.45;344.10;;;-1.40;99.90;;;;;;4980522;28;20334;-81
2022/03/01 01:32:23;;;;;;;325.42;310.77;;;-1.30;99.90;;;;;;4980623;28;20585;-81
2022/03/01 01:34:52;;;;;;;295.42;281.48;;;-1.20;99.90;;;;;;4980749;28;20219;-81
2022/03/01 01:37:19;;;;;;;258.52;247.23;;;-1.30;99.90;;;;;;4979373;28;20207;-81
2022/03/01 01:39:47;;;;;;;228.40;217.25;;;-1.10;99.90;;;;;;4979860;28;20196;-81
2022/03/01 01:42:14;;;;;;;201.35;192.50;;;-1.00;99.90;;;;;;4980745;28;20199;-81
2022/03/01 01:44:43;;;;;;;191.82;182.90;;;-0.90;99.90;;;;;;4980413;28;20220;-80
2022/03/01 01:47:09;;;;;;;221.13;211.20;;;-0.70;99.90;;;;;;4980692;28;20200;-82
2022/03/01 01:49:36;;;;;;;199.80;190.95;;;-0.70;99.90;;;;;;4980671;28;20212;-82
2022/03/01 01:52:05;;;;;;;152.23;145.13;;;-0.70;99.90;;;;;;4980839;28;20212;-81
2022/03/01 01:54:32;;;;;;;83.00;78.13;;;-0.50;99.90;;;;;;4980500;28;20604;-82
2022/03/01 01:56:59;;;;;;;37.53;34.13;;;-0.10;99.90;;;;;;4981040;28;20204;-81
2022/03/01 01:59:28;;;;;;;21.42;18.30;;;0.30;95.90;;;;;;4980635;28;20204;-82
2022/03/01 02:02:00;;;;;;;23.77;17.60;;;0.70;92.20;;;;;;4980860;28;20192;-82
2022/03/01 02:04:28;;;;;;;21.73;17.60;;;1.00;90.90;;;;;;4979897;28;21078;-82
2022/03/01 02:06:56;;;;;;;31.17;17.87;;;1.10;90.40;;;;;;4980013;28;20455;-81
2022/03/01 02:09:24;;;;;;;29.60;15.73;;;1.20;90.40;;;;;;4980377;28;20494;-81
2022/03/01 02:11:57;;;;;;;26.00;16.20;;;1.20;90.50;;;;;;4979697;28;20463;-81
2022/03/01 02:14:24;;;;;;;24.83;16.97;;;1.10;91.00;;;;;;4980170;28;20479;-82
2022/03/01 02:16:51;;;;;;;29.43;16.70;;;1.10;91.00;;;;;;4980460;28;20990;-82
2022/03/01 02:19:18;;;;;;;30.93;16.67;;;1.20;90.60;;;;;;4980226;28;20457;-82
2022/03/01 02:21:52;;;;;;;25.47;18.03;;;1.10;90.80;;;;;;4979827;28;20455;-82
2022/03/01 02:24:34;;;;;;;26.98;17.83;;;0.90;91.20;;;;;;4979676;28;20511;-82
2022/03/01 02:27:03;;;;;;;26.40;16.93;;;0.90;91.50;;;;;;4980078;28;20180;-82
2022/03/01 02:29:30;;;;;;;28.30;16.53;;;1.00;91.80;;;;;;4980488;28;20494;-82
2022/03/01 02:31:59;;;;;;;26.30;18.10;;;1.00;91.90;;;;;;4979927;28;20483;-81
2022/03/01 02:34:26;;;;;;;24.13;16.77;;;1.00;91.70;;;;;;4979777;28;20222;-81
2022/03/01 02:36:54;;;;;;;22.83;16.33;;;0.90;91.80;;;;;;4980253;28;20466;-81
2022/03/01 02:39:21;;;;;;;28.37;18.70;;;0.90;91.70;;;;;;4980331;28;20451;-82
2022/03/01 02:41:48;;;;;;;27.17;16.50;;;0.90;92.00;;;;;;4979556;28;20466;-82
2022/03/01 02:44:16;;;;;;;26.70;17.83;;;0.90;91.90;;;;;;4979919;28;20491;-82
2022/03/01 02:46:43;;;;;;;24.37;16.70;;;0.80;92.20;;;;;;4980065;28;20842;-82
2022/03/01 02:49:10;;;;;;;26.50;19.73;;;0.80;92.50;;;;;;4978502;28;20485;-81
2022/03/01 02:51:38;;;;;;;27.27;20.83;;;0.50;92.50;;;;;;4979424;28;20461;-82
2022/03/01 02:54:07;;;;;;;28.95;20.75;;;0.30;93.20;;;;;;4979361;28;20497;-82
2022/03/01 02:56:34;;;;;;;30.40;23.38;;;0.10;94.10;;;;;;4979673;28;20200;-82
2022/03/01 02:59:01;;;;;;;31.40;26.30;;;-0.10;95.10;;;;;;4979096;28;20200;-81
2022/03/01 03:01:28;;;;;;;34.37;31.17;;;-0.20;96.20;;;;;;4978842;28;20211;-82
2022/03/01 03:03:55;;;;;;;43.00;39.37;;;-0.20;97.00;;;;;;4979758;28;20474;-81
2022/03/01 03:06:22;;;;;;;53.17;49.17;;;-0.30;97.80;;;;;;4979252;28;20451;-81
2022/03/01 03:08:49;;;;;;;49.73;46.13;;;-0.20;98.10;;;;;;4979240;28;20486;-82
2022/03/01 03:11:17;;;;;;;46.22;42.28;;;0.00;97.60;;;;;;4979631;28;20474;-81
2022/03/01 03:13:44;;;;;;;47.47;43.60;;;0.00;97.30;;;;;;4978638;28;20715;-81
2022/03/01 03:16:11;;;;;;;38.22;34.90;;;0.30;96.80;;;;;;4978351;28;20459;-81
2022/03/01 03:18:38;;;;;;;32.00;28.90;;;0.40;96.20;;;;;;4979231;28;20203;-82
2022/03/01 03:21:06;;;;;;;29.17;26.07;;;0.50;95.80;;;;;;4979319;28;20450;-81
2022/03/01 03:23:33;;;;;;;24.33;21.17;;;0.60;95.20;;;;;;4978681;28;20475;-81
2022/03/01 03:26:00;;;;;;;23.10;19.38;;;0.70;94.50;;;;;;4978936;28;20548;-82
2022/03/01 03:28:29;;;;;;;22.80;17.75;;;0.70;94.20;;;;;;4978262;28;20207;-81
2022/03/01 03:30:56;;;;;;;21.70;16.80;;;0.90;93.40;;;;;;4979073;28;20206;-81
2022/03/01 03:33:23;;;;;;;23.38;17.10;;;0.80;92.80;;;;;;4978996;28;20486;-82
2022/03/01 03:35:50;;;;;;;23.40;16.27;;;0.90;92.70;;;;;;4978439;28;20199;-82
2022/03/01 03:38:17;;;;;;;24.30;17.20;;;0.90;92.50;;;;;;4979054;28;20203;-81
2022/03/01 03:40:44;;;;;;;24.00;16.67;;;0.80;92.30;;;;;;4979546;28;20192;-82
2022/03/01 03:43:10;;;;;;;24.03;17.00;;;0.90;92.30;;;;;;4979049;28;20470;-82
2022/03/01 03:45:38;;;;;;;21.33;15.30;;;0.90;92.20;;;;;;4978622;28;20454;-81
2022/03/01 03:48:06;;;;;;;20.90;14.30;;;0.80;91.80;;;;;;4978943;28;20455;-80
2022/03/01 03:50:32;;;;;;;21.17;16.00;;;0.90;91.50;;;;;;4978365;28;20475;-81
2022/03/01 03:52:59;;;;;;;22.33;16.20;;;0.90;91.40;;;;;;4977879;28;20479;-82
2022/03/01 03:55:26;;;;;;;20.60;15.40;;;0.90;91.30;;;;;;5000759;23;20494;-83
2022/03/01 03:57:53;;;;;;;24.30;15.20;;;0.90;91.60;;;;;;4979270;28;20455;-83
2022/03/01 04:00:23;;;;;;;25.83;14.03;;;0.80;91.60;;;;;;4978733;28;20481;-83
2022/03/01 04:02:52;;;;;;;22.00;15.47;;;0.80;91.50;;;;;;4978380;28;20461;-82
2022/03/01 04:05:19;;;;;;;21.67;14.23;;;1.00;91.30;;;;;;4979532;28;21037;-83
2022/03/01 04:07:47;;;;;;;23.27;15.35;;;0.80;91.20;;;;;;4978831;28;20624;-82
2022/03/01 04:10:15;;;;;;;18.63;13.97;;;1.00;91.10;;;;;;4980384;28;20230;-83
2022/03/01 04:12:42;;;;;;;22.53;16.40;;;0.80;91.10;;;;;;4980513;28;20466;-82
2022/03/01 04:15:10;;;;;;;24.50;15.32;;;0.80;91.30;;;;;;4979280;28;20471;-82
2022/03/01 04:17:37;;;;;;;22.77;14.80;;;0.70;91.30;;;;;;4978951;28;20195;-82
2022/03/01 04:20:06;;;;;;;19.00;12.53;;;0.60;91.10;;;;;;4978873;28;20459;-82
2022/03/01 04:22:33;;;;;;;18.60;13.27;;;0.70;90.90;;;;;;4979770;28;20454;-82
2022/03/01 04:25:00;;;;;;;23.97;13.50;;;0.80;90.50;;;;;;4979218;28;20475;-82
2022/03/01 04:27:28;;;;;;;17.37;13.10;;;0.70;89.50;;;;;;4978983;28;20482;-82
2022/03/01 04:29:55;;;;;;;22.17;13.03;;;0.80;89.20;;;;;;4978687;28;20478;-83
2022/03/01 04:32:21;;;;;;;18.83;11.83;;;0.70;88.60;;;;;;4979069;28;20462;-83
2022/03/01 04:34:48;;;;;;;18.47;12.80;;;0.80;88.90;;;;;;4979247;28;20482;-83
2022/03/01 04:37:16;;;;;;;27.17;13.50;;;0.80;88.90;;;;;;4978987;28;20459;-82
2022/03/01 04:39:43;;;;;;;22.40;15.93;;;0.70;90.00;;;;;;4978821;28;20458;-82
2022/03/01 04:42:12;;;;;;;17.50;12.40;;;0.70;90.00;;;;;;4979073;28;20461;-82
2022/03/01 04:44:39;;;;;;;21.13;14.68;;;0.70;90.20;;;;;;4978771;28;20869;-82
2022/03/01 04:47:06;;;;;;;20.13;13.70;;;0.60;90.90;;;;;;4979150;28;20204;-83
2022/03/01 04:49:33;;;;;;;17.17;14.30;;;0.50;91.30;;;;;;4978487;28;20590;-83
2022/03/01 04:52:02;;;;;;;17.33;12.80;;;0.50;91.50;;;;;;4978886;28;20463;-82
2022/03/01 04:54:30;;;;;;;22.33;14.87;;;0.60;91.50;;;;;;4978312;28;20569;-82
2022/03/01 04:56:57;;;;;;;21.90;14.37;;;0.40;91.30;;;;;;4978743;28;21034;-82
2022/03/01 04:59:24;;;;;;;19.60;14.70;;;0.50;91.40;;;;;;4978697;28;20455;-82
2022/03/01 05:01:50;;;;;;;23.70;14.97;;;0.40;91.40;;;;;;4978712;28;20791;-82
2022/03/01 05:04:17;;;;;;;17.73;12.87;;;0.30;91.50;;;;;;4978181;28;20474;-82
2022/03/01 05:06:44;;;;;;;23.33;15.60;;;0.40;91.40;;;;;;4978078;28;20476;-82
2022/03/01 05:09:12;;;;;;;16.60;13.27;;;0.50;91.70;;;;;;4977515;28;20550;-82
2022/03/01 05:11:40;;;;;;;18.37;13.17;;;0.50;91.20;;;;;;4978151;28;20521;-83
2022/03/01 05:14:07;;;;;;;18.98;14.95;;;0.70;89.10;;;;;;4981349;28;20479;-83
2022/03/01 05:16:34;;;;;;;20.05;12.05;;;0.70;86.50;;;;;;4982289;28;20206;-82
2022/03/01 05:19:00;;;;;;;16.87;10.80;;;1.00;84.90;;;;;;4982174;28;20569;-82
2022/03/01 05:21:27;;;;;;;18.17;10.60;;;1.10;82.40;;;;;;4980868;28;20975;-83
2022/03/01 05:23:54;;;;;;;19.40;10.60;;;1.30;81.10;;;;;;4980928;28;20501;-83
2022/03/01 05:26:21;;;;;;;18.50;12.77;;;1.50;78.50;;;;;;4981020;28;20458;-83
2022/03/01 05:28:49;;;;;;;15.40;13.17;;;1.50;77.80;;;;;;4981151;28;20207;-82
2022/03/01 05:31:17;;;;;;;17.47;12.30;;;1.60;78.00;;;;;;4981475;28;20489;-83
2022/03/01 05:33:44;;;;;;;17.67;12.33;;;1.50;77.90;;;;;;4981172;28;20491;-82
2022/03/01 05:36:11;;;;;;;17.70;12.43;;;1.40;78.00;;;;;;4980927;28;20542;-83
2022/03/01 05:38:38;;;;;;;19.53;11.27;;;1.50;77.90;;;;;;4981574;28;20455;-83
2022/03/01 05:41:05;;;;;;;20.27;12.10;;;1.50;76.10;;;;;;4982218;28;20451;-84
2022/03/01 05:43:32;;;;;;;21.40;15.20;;;1.50;75.80;;;;;;4982032;28;20510;-82
2022/03/01 05:46:03;;;;;;;17.10;10.97;;;1.60;75.00;;;;;;4981121;28;20505;-82
2022/03/01 05:48:29;;;;;;;17.20;11.70;;;1.50;75.30;;;;;;4979940;28;20455;-83
2022/03/01 05:50:57;;;;;;;17.37;11.77;;;1.50;75.30;;;;;;4981778;28;20478;-81
2022/03/01 05:53:25;;;;;;;16.73;12.00;;;1.60;76.50;;;;;;4983345;28;20459;-83
2022/03/01 05:55:52;;;;;;;19.50;14.40;;;1.40;78.40;;;;;;4983896;28;20459;-83
2022/03/01 05:58:18;;;;;;;20.23;13.00;;;1.40;79.80;;;;;;4982263;28;20527;-82
2022/03/01 06:00:45;;;;;;;19.97;13.77;;;1.30;80.70;;;;;;4982880;28;20455;-82
2022/03/01 06:03:13;;;;;;;21.27;12.53;;;1.30;81.10;;;;;;4987037;28;20439;-82
2022/03/01 06:05:40;;;;;;;19.85;13.27;;;1.10;82.20;;;;;;4996508;28;20509;-82
2022/03/01 06:08:07;;;;;;;21.57;14.50;;;1.10;83.10;;;;;;4996308;28;20206;-81
2022/03/01 06:10:34;;;;;;;26.37;14.50;;;1.10;83.50;;;;;;4990207;28;20478;-83
2022/03/01 06:13:00;;;;;;;23.80;12.63;;;1.20;83.60;;;;;;4983110;28;20462;-82
2022/03/01 06:15:27;;;;;;;23.63;13.80;;;1.20;84.20;;;;;;4982929;28;20490;-82
2022/03/01 06:17:54;;;;;;;18.90;11.98;;;1.30;82.00;;;;;;4983275;28;20466;-82
2022/03/01 06:20:22;;;;;;;29.87;13.67;;;1.20;80.70;;;;;;4984025;28;20211;-82
2022/03/01 06:22:49;;;;;;;18.00;11.20;;;1.30;78.10;;;;;;4991320;28;20459;-83
2022/03/01 06:25:15;;;;;;;18.57;12.30;;;1.50;77.00;;;;;;4998351;28;20447;-83
2022/03/01 06:27:42;;;;;;;17.90;12.40;;;1.60;75.90;;;;;;4998917;28;20454;-82
2022/03/01 06:30:11;;;;;;;20.80;11.57;;;1.60;75.70;;;;;;4998246;28;20483;-82
2022/03/01 06:32:38;;;;;;;16.57;11.50;;;1.70;74.60;;;;;;4982459;28;20455;-82
2022/03/01 06:35:06;;;;;;;22.60;12.77;;;1.80;73.30;;;;;;4980420;28;20481;-83
2022/03/01 06:37:34;;;;;;;17.67;12.23;;;1.90;72.40;;;;;;4980412;28;20466;-82
2022/03/01 06:40:01;;;;;;;17.43;11.30;;;1.90;71.60;;;;;;4978346;28;20455;-82
2022/03/01 06:42:28;;;;;;;18.43;12.90;;;1.90;71.10;;;;;;4981270;28;20459;-82
2022/03/01 06:44:55;;;;;;;16.53;11.13;;;2.10;70.90;;;;;;4980209;28;20478;-82
2022/03/01 06:47:22;;;;;;;17.37;11.40;;;2.00;69.90;;;;;;4979912;28;20459;-84
2022/03/01 06:49:48;;;;;;;16.60;11.33;;;2.20;68.10;;;;;;4979147;28;21137;-82
2022/03/01 06:52:15;;;;;;;19.00;12.53;;;2.30;67.30;;;;;;4979274;28;20459;-82
2022/03/01 06:54:43;;;;;;;21.00;12.87;;;2.30;66.80;;;;;;4978300;28;20493;-81
2022/03/01 06:57:10;;;;;;;19.13;12.53;;;2.40;66.40;;;;;;4978084;28;20943;-81
2022/03/01 06:59:37;;;;;;;17.10;12.13;;;2.50;66.90;;;;;;4977686;28;20455;-82
2022/03/01 07:02:04;;;;;;;33.80;22.73;;;2.40;66.30;;;;;;4980293;28;20465;-82
2022/03/01 07:04:31;;;;;;;21.73;12.93;;;2.30;65.90;;;;;;4979844;28;20471;-82
2022/03/01 07:06:57;;;;;;;18.27;12.50;;;2.40;66.50;;;;;;4978923;28;20451;-83
2022/03/01 07:09:24;;;;;;;21.40;13.03;;;2.40;65.90;;;;;;4980319;28;20870;-84
2022/03/01 07:11:52;;;;;;;23.13;12.80;;;2.40;65.20;;;;;;4978972;28;20509;-83
2022/03/01 07:14:20;;;;;;;25.50;12.10;;;2.40;65.00;;;;;;4979481;28;20475;-83
2022/03/01 07:16:46;;;;;;;20.50;13.80;;;2.50;64.70;;;;;;4979357;28;20778;-83
2022/03/01 07:22:10;;;;;;;23.93;17.83;;;2.50;63.50;;;;;;4978418;28;20447;-84
2022/03/01 07:24:37;;;;;;;20.07;12.80;;;2.60;63.70;;;;;;4979564;28;20470;-81
2022/03/01 07:27:06;;;;;;;23.60;15.23;;;2.80;62.40;;;;;;4979463;28;20960;-82
2022/03/01 07:29:33;;;;;;;21.53;15.47;;;2.80;61.10;;;;;;4977419;28;20523;-82
2022/03/01 07:32:00;;;;;;;21.60;12.20;;;2.80;60.70;;;;;;4977945;28;20478;-82
2022/03/01 07:34:27;;;;;;;18.93;13.00;;;2.80;59.60;;;;;;4979164;28;20864;-82
2022/03/01 07:36:54;;;;;;;17.70;11.80;;;3.10;58.60;;;;;;4977605;28;20458;-82
2022/03/01 07:39:21;;;;;;;26.60;11.73;;;3.00;58.30;;;;;;4979710;28;20455;-82
2022/03/01 07:41:47;;;;;;;21.20;11.97;;;3.10;57.20;;;;;;4979138;28;20451;-82
2022/03/01 07:44:15;;;;;;;24.30;13.07;;;3.10;57.70;;;;;;4979272;28;20479;-83
2022/03/01 07:46:43;;;;;;;15.17;9.80;;;3.00;56.70;;;;;;4978584;28;20526;-84
2022/03/01 07:49:09;;;;;;;22.80;11.03;;;3.20;56.10;;;;;;4977739;28;20463;-83
2022/03/01 07:51:36;;;;;;;20.57;12.80;;;3.30;56.20;;;;;;4979835;28;20483;-84
2022/03/01 07:54:03;;;;;;;20.03;12.07;;;3.30;56.00;;;;;;4978410;28;20486;-84
2022/03/01 07:56:31;;;;;;;23.43;12.17;;;3.20;55.90;;;;;;4979396;28;20457;-83
2022/03/01 07:58:58;;;;;;;20.10;12.57;;;3.30;55.00;;;;;;4979573;28;20459;-84
2022/03/01 08:01:26;;;;;;;18.20;11.43;;;3.20;54.10;;;;;;4978908;28;20457;-81
2022/03/01 08:03:53;;;;;;;21.77;13.70;;;3.30;53.70;;;;;;4977465;28;20563;-83
2022/03/01 08:06:19;;;;;;;19.50;11.30;;;3.40;53.40;;;;;;4977502;28;20454;-84
2022/03/01 08:08:46;;;;;;;17.80;12.23;;;3.40;53.60;;;;;;4977615;28;20474;-83
2022/03/01 08:11:13;;;;;;;25.43;13.37;;;3.50;51.80;;;;;;4978518;28;20487;-83
2022/03/01 08:13:40;;;;;;;19.70;12.17;;;3.60;50.30;;;;;;4978390;28;20466;-84
2022/03/01 08:16:07;;;;;;;24.70;12.43;;;3.90;49.10;;;;;;4978742;28;20466;-83
2022/03/01 08:18:35;;;;;;;19.33;13.63;;;4.00;48.20;;;;;;4978326;28;20470;-83
2022/03/01 08:21:02;;;;;;;22.40;13.70;;;4.20;48.20;;;;;;4978716;28;20461;-83
2022/03/01 08:23:28;;;;;;;20.40;12.43;;;4.30;47.20;;;;;;4978683;28;20465;-83
2022/03/01 08:25:55;;;;;;;20.20;13.00;;;4.50;46.30;;;;;;4978523;28;20466;-83
2022/03/01 08:28:22;;;;;;;19.80;12.70;;;4.80;46.60;;;;;;4978445;28;20451;-83
2022/03/01 08:30:49;;;;;;;23.93;12.40;;;5.00;43.20;;;;;;4978473;28;20475;-83
2022/03/01 08:33:16;;;;;;;20.27;12.67;;;5.10;42.20;;;;;;4978067;28;20502;-83
2022/03/01 08:35:44;;;;;;;17.83;11.73;;;5.20;42.30;;;;;;4978573;28;21058;-84
2022/03/01 08:38:11;;;;;;;18.50;12.60;;;5.30;41.00;;;;;;4978251;28;20455;-84
2022/03/01 08:40:39;;;;;;;23.07;13.43;;;5.30;38.50;;;;;;4980539;28;20459;-84
2022/03/01 08:43:07;;;;;;;18.33;12.10;;;5.40;40.70;;;;;;4978713;28;20837;-83
2022/03/01 08:45:34;;;;;;;19.63;12.60;;;5.50;40.50;;;;;;4977975;28;20855;-85
2022/03/01 08:48:01;;;;;;;19.80;11.00;;;5.40;39.90;;;;;;4979607;28;20455;-83
2022/03/01 08:50:28;;;;;;;20.20;13.10;;;5.40;38.00;;;;;;4981848;28;20482;-84
2022/03/01 08:52:57;;;;;;;18.93;11.90;;;5.70;39.00;;;;;;4982262;28;20458;-83
2022/03/01 08:55:24;;;;;;;21.47;13.57;;;5.80;37.70;;;;;;4981995;28;20487;-84
2022/03/01 08:57:50;;;;;;;19.60;11.63;;;5.80;36.40;;;;;;4982062;28;20455;-83
2022/03/01 09:00:18;;;;;;;21.77;13.10;;;5.80;36.00;;;;;;4981400;28;20459;-83
2022/03/01 09:02:45;;;;;;;18.53;12.00;;;5.80;37.30;;;;;;4981459;28;20454;-84
2022/03/01 09:05:12;;;;;;;21.60;12.93;;;6.10;36.60;;;;;;4981227;28;20471;-84
2022/03/01 09:07:39;;;;;;;22.23;13.77;;;6.20;36.50;;;;;;4981803;28;20457;-83
2022/03/01 09:10:08;;;;;;;17.77;12.33;;;6.20;34.00;;;;;;4981807;28;20461;-84
2022/03/01 09:12:35;;;;;;;21.20;12.87;;;6.20;36.00;;;;;;4982079;28;20817;-83
2022/03/01 09:15:02;;;;;;;16.87;11.67;;;6.20;35.70;;;;;;4982034;28;20497;-83
2022/03/01 09:17:28;;;;;;;18.77;12.47;;;6.30;35.70;;;;;;4981649;28;20458;-84
2022/03/01 09:19:55;;;;;;;19.93;13.37;;;6.40;37.20;;;;;;4981317;28;20451;-85
2022/03/01 09:22:22;;;;;;;23.83;13.60;;;6.30;34.40;;;;;;4981062;28;20455;-83
2022/03/01 09:24:49;;;;;;;18.70;11.87;;;6.20;35.40;;;;;;4981623;28;20479;-83
2022/03/01 09:27:17;;;;;;;20.50;11.83;;;6.10;33.50;;;;;;4981785;28;20454;-85
2022/03/01 09:29:44;;;;;;;24.37;12.83;;;6.00;35.20;;;;;;4981663;28;20450;-83
2022/03/01 09:32:10;;;;;;;19.73;12.20;;;6.10;34.70;;;;;;4981399;28;21025;-84
2022/03/01 09:34:37;;;;;;;17.47;12.27;;;6.10;36.30;;;;;;4981090;28;20479;-84
2022/03/01 09:37:04;;;;;;;22.97;13.83;;;6.10;37.00;;;;;;4981372;28;20462;-83
2022/03/01 09:39:31;;;;;;;19.90;13.90;;;6.00;36.50;;;;;;4980504;28;20462;-83
2022/03/01 09:41:59;;;;;;;18.93;12.30;;;5.90;37.10;;;;;;4981196;28;20447;-83
2022/03/01 09:44:28;;;;;;;19.87;12.53;;;6.40;36.40;;;;;;4981082;28;20486;-84
2022/03/01 09:46:55;;;;;;;21.87;12.87;;;7.00;34.60;;;;;;4981251;28;20459;-83
2022/03/01 09:49:22;;;;;;;21.37;13.23;;;7.90;32.30;;;;;;4980592;28;20459;-83
2022/03/01 09:51:49;;;;;;;22.07;14.20;;;8.50;28.90;;;;;;4981132;28;20490;-83
2022/03/01 09:54:16;;;;;;;18.53;11.80;;;8.80;26.90;;;;;;4993096;23;20459;-84
2022/03/01 09:56:43;;;;;;;19.47;13.30;;;9.00;26.70;;;;;;4976401;28;20477;-82
2022/03/01 09:59:10;;;;;;;20.73;12.50;;;9.50;25.00;;;;;;4974956;28;20490;-84
2022/03/01 10:01:38;;;;;;;20.87;14.10;;;10.40;20.10;;;;;;4976272;28;20451;-82
2022/03/01 10:04:09;;;;;;;19.33;12.33;;;10.70;17.90;;;;;;4975864;28;20451;-83
2022/03/01 10:06:41;;;;;;;22.27;13.27;;;10.90;16.60;;;;;;4977070;28;20455;-83
2022/03/01 10:09:18;;;;;;;22.90;12.50;;;11.30;15.90;;;;;;4976477;28;20939;-83
2022/03/01 10:11:45;;;;;;;22.50;12.60;;;11.30;13.50;;;;;;4976082;28;20489;-83
2022/03/01 10:14:13;;;;;;;24.47;11.93;;;11.40;16.80;;;;;;4974164;28;20974;-83
2022/03/01 10:16:42;;;;;;;20.23;12.17;;;10.80;17.40;;;;;;4975386;28;20830;-83
2022/03/01 10:19:11;;;;;;;18.83;12.43;;;10.80;18.90;;;;;;4975790;28;20517;-83
2022/03/01 10:21:38;;;;;;;16.40;11.43;;;10.20;17.30;;;;;;4975830;28;20459;-83
2022/03/01 10:24:07;;;;;;;18.13;11.70;;;10.10;17.50;;;;;;4975571;28;21003;-83
2022/03/01 10:26:37;;;;;;;18.93;12.33;;;9.80;18.00;;;;;;4975647;28;21100;-82
2022/03/01 10:29:06;;;;;;;19.87;13.37;;;9.90;21.40;;;;;;4974855;28;20450;-83
2022/03/01 10:31:34;;;;;;;20.80;13.07;;;9.70;19.70;;;;;;4975127;28;20475;-80
2022/03/01 10:34:05;;;;;;;19.73;13.23;;;9.40;19.20;;;;;;4974919;28;20896;-81
2022/03/01 10:36:33;;;;;;;17.40;10.77;;;9.50;20.20;;;;;;4975379;28;20459;-81
2022/03/01 10:39:02;;;;;;;20.20;10.93;;;9.40;18.40;;;;;;4975036;28;20463;-81
2022/03/01 10:41:31;;;;;;;18.97;11.97;;;9.30;17.10;;;;;;4975142;28;20455;-83
2022/03/01 10:43:59;;;;;;;17.43;11.20;;;9.40;20.20;;;;;;4974580;28;20473;-82
2022/03/01 10:46:27;;;;;;;23.67;11.27;;;9.50;19.20;;;;;;4975565;28;20455;-82
2022/03/01 10:49:05;;;;;;;17.63;10.67;;;9.30;19.50;;;;;;4974680;28;20459;-82
2022/03/01 10:51:32;;;;;;;19.40;11.90;;;9.50;20.20;;;;;;4974694;28;20483;-80
2022/03/01 10:54:00;;;;;;;17.50;10.87;;;9.50;19.10;;;;;;4974608;28;20955;-83
2022/03/01 10:56:36;;;;;;;19.00;11.87;;;9.40;18.20;;;;;;4974134;28;20514;-82
2022/03/01 10:59:04;;;;;;;24.60;13.60;;;9.70;20.20;;;;;;4974524;28;20455;-83
2022/03/01 11:01:31;;;;;;;19.03;12.50;;;10.00;16.60;;;;;;4975419;28;20462;-82
2022/03/01 11:03:57;;;;;;;20.40;11.33;;;10.20;15.80;;;;;;4974530;28;20469;-83
2022/03/01 11:06:27;;;;;;;22.13;11.97;;;10.10;16.60;;;;;;4973997;28;20468;-82
2022/03/01 11:08:54;;;;;;;18.53;12.20;;;10.20;16.70;;;;;;4974431;28;20910;-83
2022/03/01 11:11:24;;;;;;;20.20;11.97;;;10.30;15.50;;;;;;4974313;28;20482;-82
2022/03/01 11:13:51;;;;;;;17.53;10.60;;;10.20;15.00;;;;;;4975410;28;20454;-84
2022/03/01 11:16:43;;;;;;;19.80;11.03;;;10.20;15.80;;;;;;4974891;28;20507;-82
2022/03/01 11:19:33;;;;;;;32.87;13.30;;;10.60;14.30;;;;;;4973304;28;20514;-84
2022/03/01 11:22:02;;;;;;;16.30;9.93;;;10.60;13.90;;;;;;4974921;28;20462;-83
2022/03/01 11:24:35;;;;;;;20.73;11.50;;;10.90;16.10;;;;;;4975851;28;20482;-83
2022/03/01 11:27:13;;;;;;;17.60;11.30;;;10.90;13.20;;;;;;4979558;28;20474;-84
2022/03/01 11:29:45;;;;;;;16.20;10.53;;;11.30;14.00;;;;;;4979511;28;20455;-83
2022/03/01 11:32:15;;;;;;;17.40;10.77;;;11.30;12.30;;;;;;4978544;28;20507;-84
2022/03/01 11:34:42;;;;;;;18.90;11.23;;;11.40;11.70;;;;;;4977095;28;21007;-83
2022/03/01 11:37:18;;;;;;;15.50;10.50;;;11.10;10.00;;;;;;4974421;28;20461;-83
2022/03/01 11:39:55;;;;;;;18.20;10.33;;;11.00;10.60;;;;;;4974735;28;20451;-85
2022/03/01 11:42:22;;;;;;;15.77;10.40;;;11.10;8.30;;;;;;4973945;28;20849;-85
2022/03/01 11:44:50;;;;;;;21.10;10.47;;;11.00;8.40;;;;;;4973760;28;21050;-85
2022/03/01 11:47:26;;;;;;;16.90;10.67;;;10.90;9.10;;;;;;4973666;28;20470;-86
2022/03/01 11:49:54;;;;;;;17.37;10.50;;;10.90;9.60;;;;;;4973708;28;20465;-83
2022/03/01 11:52:23;;;;;;;17.20;9.97;;;11.00;10.80;;;;;;4973668;28;20891;-84
2022/03/01 11:54:53;;;;;;;16.80;9.93;;;11.00;12.00;;;;;;4973766;28;20487;-83
2022/03/01 11:57:25;;;;;;;16.80;10.57;;;10.90;8.50;;;;;;4973666;28;20823;-84
2022/03/01 11:59:53;;;;;;;15.47;9.23;;;10.70;8.00;;;;;;4973403;28;20875;-84
2022/03/01 12:02:22;;;;;;;16.23;10.20;;;11.30;9.50;;;;;;4973651;28;20451;-84
2022/03/01 12:04:51;;;;;;;19.07;9.77;;;11.60;8.30;;;;;;4974185;28;20571;-84
2022/03/01 12:07:19;;;;;;;16.13;10.50;;;12.00;8.90;;;;;;4974265;28;20529;-84
2022/03/01 12:09:57;;;;;;;17.70;9.43;;;12.00;3.80;;;;;;4975720;28;20470;-85
2022/03/01 12:12:33;;;;;;;13.47;8.30;;;11.90;3.90;;;;;;4975792;28;20489;-85
2022/03/01 12:15:00;;;;;;;19.17;9.80;;;11.90;3.20;;;;;;4975469;28;21046;-85
2022/03/01 12:17:27;;;;;;;16.00;8.37;;;12.00;3.30;;;;;;4975462;28;20466;-83
2022/03/01 12:20:00;;;;;;;19.47;10.60;;;12.20;2.70;;;;;;4973731;28;20458;-84
2022/03/01 12:22:27;;;;;;;15.17;9.40;;;12.20;3.80;;;;;;4975271;28;20459;-83
2022/03/01 12:24:57;;;;;;;15.50;10.10;;;12.30;5.30;;;;;;4978661;28;20474;-83
2022/03/01 12:27:30;;;;;;;16.20;10.80;;;12.30;3.50;;;;;;4978113;28;20455;-84
2022/03/01 12:30:04;;;;;;;19.00;9.80;;;12.20;2.90;;;;;;4977880;28;20943;-83
2022/03/01 12:32:33;;;;;;;16.10;9.53;;;12.20;1.70;;;;;;4978093;28;20840;-88
2022/03/01 12:35:02;;;;;;;17.50;10.17;;;12.20;1.30;;;;;;4978097;28;20525;-86
2022/03/01 12:37:29;;;;;;;15.47;9.63;;;12.20;3.30;;;;;;4978156;28;20463;-86
2022/03/01 12:39:58;;;;;;;15.40;9.57;;;12.30;1.00;;;;;;4976720;28;20463;-86
2022/03/01 12:42:27;;;;;;;17.30;10.30;;;12.20;1.00;;;;;;4979841;28;20451;-86